Date,TemperatureHighF,TemperatureAvgF,TemperatureLowF,DewpointHighF,DewpointAvgF,DewpointLowF,HumidityHigh,HumidityAvg,HumidityLow,PressureMaxIn,PressureMinIn,WindSpeedMaxMPH,WindSpeedAvgMPH,GustSpeedMaxMPH,PrecipitationSumIn
2013-2-1,24,14,5,18,0,-6,82,53,41,0.00,40.00,29,15,36,0.00
2013-2-2,36,27,22,20,16,12,82,62,49,0.00,40.00,25,14,29,0.00
2013-2-3,34,28,22,26,17,8,91,65,36,0.00,40.00,29,14,38,0.00
2013-2-4,50,34,26,25,22,18,77,63,36,0.00,40.00,21,14,24,0.00
2013-2-5,49,35,27,29,26,21,87,72,45,0.00,40.00,23,12,29,0.00
2013-2-6,49,37,27,33,28,25,94,72,40,0.00,40.00,18,9,21,0.00
2013-2-7,42,38,34,41,35,29,95,88,78,0.00,40.00,29,10,33,0.00
2013-2-8,37,32,30,35,26,21,92,77,66,0.00,40.00,27,13,31,0.00
2013-2-9,40,34,30,32,26,22,81,72,61,0.00,40.00,19,13,23,0.00
2013-2-10,51,44,37,49,40,29,93,87,52,0.00,40.00,37,22,46,0.00
2013-2-11,46,39,32,30,24,19,75,54,41,0.00,40.00,42,24,57,0.00
2013-2-12,40,34,27,27,25,23,89,71,52,0.00,40.00,14,5,17,0.00
2013-2-13,51,38,32,30,28,21,92,70,31,0.00,40.00,21,8,25,0.00
2013-2-14,50,41,35,32,30,27,88,67,43,0.00,40.00,26,14,31,0.00
2013-2-15,38,31,25,32,17,8,88,57,31,0.00,40.00,25,16,29,0.00
2013-2-16,34,25,17,13,10,7,75,54,33,0.00,40.00,24,13,29,0.00
2013-2-17,41,30,16,22,17,10,80,60,39,0.00,40.00,23,14,29,0.00
2013-2-18,55,43,31,47,35,21,95,75,60,0.00,40.00,37,26,44,0.00
2013-2-19,31,25,20,21,12,6,66,57,44,0.00,40.00,37,28,44,0.00
2013-2-20,25,20,10,13,5,0,67,53,41,0.00,40.00,19,8,23,0.00
2013-2-21,32,25,18,31,21,13,95,84,66,0.00,40.00,31,14,37,0.00
2013-2-22,35,32,23,33,27,17,95,83,65,0.00,40.00,29,12,32,0.00
2013-2-23,31,24,17,19,16,13,86,72,52,0.00,40.00,14,9,16,0.00
2013-2-24,41,30,18,24,19,14,86,65,43,0.00,40.00,10,6,12,0.00
2013-2-25,44,36,28,30,27,24,89,71,48,0.00,40.00,27,14,31,0.00
2013-2-26,37,34,33,34,32,28,96,93,70,0.00,40.00,36,19,42,0.00
2013-2-27,35,33,32,32,31,30,95,93,88,0.00,40.00,23,17,27,0.00
2013-2-28,35,33,32,32,31,30,95,93,88,0.00,40.00,21,14,24,0.00